sensor_id;sensor_type;location;lat;lon;timestamp;pressure;altitude;pressure_sealevel;temperature
61703;BMP280;47622;47.726;3.298;2023-09-30T00:00:37;100070.16;;;13.31
61703;BMP280;47622;47.726;3.298;2023-09-30T00:03:03;100068.38;;;13.26
61703;BMP280;47622;47.726;3.298;2023-09-30T00:05:28;100078.41;;;13.52
61703;BMP280;47622;47.726;3.298;2023-09-30T00:07:54;100076.38;;;13.62
61703;BMP280;47622;47.726;3.298;2023-09-30T00:10:19;100078.13;;;13.67
61703;BMP280;47622;47.726;3.298;2023-09-30T00:12:45;100089.25;;;13.64
61703;BMP280;47622;47.726;3.298;2023-09-30T00:15:11;100082.94;;;13.51
61703;BMP280;47622;47.726;3.298;2023-09-30T00:17:36;100086.13;;;13.48
61703;BMP280;47622;47.726;3.298;2023-09-30T00:20:02;100075.03;;;13.37
61703;BMP280;47622;47.726;3.298;2023-09-30T00:22:29;100086.38;;;13.24
61703;BMP280;47622;47.726;3.298;2023-09-30T00:24:55;100086.34;;;13.10
61703;BMP280;47622;47.726;3.298;2023-09-30T00:27:20;100072.31;;;13.15
61703;BMP280;47622;47.726;3.298;2023-09-30T00:29:46;100068.38;;;13.13
61703;BMP280;47622;47.726;3.298;2023-09-30T00:32:12;100087.91;;;12.98
61703;BMP280;47622;47.726;3.298;2023-09-30T00:34:38;100084.47;;;12.97
61703;BMP280;47622;47.726;3.298;2023-09-30T00:37:03;100078.63;;;13.14
61703;BMP280;47622;47.726;3.298;2023-09-30T00:39:29;100080.09;;;13.20
61703;BMP280;47622;47.726;3.298;2023-09-30T00:41:59;100089.84;;;13.20
61703;BMP280;47622;47.726;3.298;2023-09-30T00:44:26;100085.09;;;13.35
61703;BMP280;47622;47.726;3.298;2023-09-30T00:46:52;100070.09;;;13.45
61703;BMP280;47622;47.726;3.298;2023-09-30T00:49:21;100069.75;;;13.37
61703;BMP280;47622;47.726;3.298;2023-09-30T00:51:47;100062.81;;;13.41
61703;BMP280;47622;47.726;3.298;2023-09-30T00:54:13;100069.91;;;13.55
61703;BMP280;47622;47.726;3.298;2023-09-30T00:56:49;100075.78;;;13.52
61703;BMP280;47622;47.726;3.298;2023-09-30T00:59:16;100081.66;;;13.49
61703;BMP280;47622;47.726;3.298;2023-09-30T01:01:43;100082.25;;;13.46
61703;BMP280;47622;47.726;3.298;2023-09-30T01:04:14;100083.00;;;13.46
61703;BMP280;47622;47.726;3.298;2023-09-30T01:06:40;100089.28;;;13.36
61703;BMP280;47622;47.726;3.298;2023-09-30T01:09:07;100085.34;;;13.34
61703;BMP280;47622;47.726;3.298;2023-09-30T01:11:33;100079.13;;;13.44
61703;BMP280;47622;47.726;3.298;2023-09-30T01:13:58;100081.84;;;13.52
61703;BMP280;47622;47.726;3.298;2023-09-30T01:16:24;100082.63;;;13.53
61703;BMP280;47622;47.726;3.298;2023-09-30T01:18:51;100070.31;;;13.62
61703;BMP280;47622;47.726;3.298;2023-09-30T01:21:18;100068.06;;;13.69
61703;BMP280;47622;47.726;3.298;2023-09-30T01:23:43;100058.53;;;13.82
61703;BMP280;47622;47.726;3.298;2023-09-30T01:26:12;100052.22;;;13.83
61703;BMP280;47622;47.726;3.298;2023-09-30T01:28:39;100058.94;;;13.89
61703;BMP280;47622;47.726;3.298;2023-09-30T01:31:05;100068.03;;;13.83
61703;BMP280;47622;47.726;3.298;2023-09-30T01:33:31;100061.00;;;13.78
61703;BMP280;47622;47.726;3.298;2023-09-30T01:35:57;100075.97;;;13.69
61703;BMP280;47622;47.726;3.298;2023-09-30T01:38:23;100074.88;;;13.70
61703;BMP280;47622;47.726;3.298;2023-09-30T01:40:51;100078.00;;;13.72
61703;BMP280;47622;47.726;3.298;2023-09-30T01:43:16;100055.13;;;13.81
61703;BMP280;47622;47.726;3.298;2023-09-30T01:45:43;100054.03;;;13.82
61703;BMP280;47622;47.726;3.298;2023-09-30T01:48:10;100059.50;;;13.86
61703;BMP280;47622;47.726;3.298;2023-09-30T01:50:40;100051.16;;;13.92
61703;BMP280;47622;47.726;3.298;2023-09-30T01:53:08;100046.13;;;13.82
61703;BMP280;47622;47.726;3.298;2023-09-30T01:55:35;100044.97;;;13.88
61703;BMP280;47622;47.726;3.298;2023-09-30T01:58:01;100058.94;;;13.89
61703;BMP280;47622;47.726;3.298;2023-09-30T02:00:27;100041.94;;;13.81
61703;BMP280;47622;47.726;3.298;2023-09-30T02:02:56;100037.25;;;13.78
61703;BMP280;47622;47.726;3.298;2023-09-30T02:05:23;100035.66;;;13.77
61703;BMP280;47622;47.726;3.298;2023-09-30T02:07:49;100046.72;;;13.79
61703;BMP280;47622;47.726;3.298;2023-09-30T02:10:16;100043.72;;;13.72
61703;BMP280;47622;47.726;3.298;2023-09-30T02:12:44;100040.94;;;13.77
61703;BMP280;47622;47.726;3.298;2023-09-30T02:15:11;100030.19;;;13.87
61703;BMP280;47622;47.726;3.298;2023-09-30T02:17:37;100034.13;;;13.98
61703;BMP280;47622;47.726;3.298;2023-09-30T02:20:02;100034.69;;;13.87
61703;BMP280;47622;47.726;3.298;2023-09-30T02:22:32;100037.06;;;13.88
61703;BMP280;47622;47.726;3.298;2023-09-30T02:24:58;100021.84;;;13.71
61703;BMP280;47622;47.726;3.298;2023-09-30T02:27:25;100037.84;;;13.75
61703;BMP280;47622;47.726;3.298;2023-09-30T02:29:50;100035.09;;;13.80
61703;BMP280;47622;47.726;3.298;2023-09-30T02:32:16;100045.66;;;13.80
61703;BMP280;47622;47.726;3.298;2023-09-30T02:34:42;100041.75;;;13.78
61703;BMP280;47622;47.726;3.298;2023-09-30T02:37:09;100041.94;;;13.81
61703;BMP280;47622;47.726;3.298;2023-09-30T02:39:35;100039.78;;;13.83
61703;BMP280;47622;47.726;3.298;2023-09-30T02:42:02;100036.06;;;13.84
61703;BMP280;47622;47.726;3.298;2023-09-30T02:44:28;100034.88;;;13.90
61703;BMP280;47622;47.726;3.298;2023-09-30T02:46:53;100044.44;;;13.86
61703;BMP280;47622;47.726;3.298;2023-09-30T02:49:22;100034.91;;;13.77
61703;BMP280;47622;47.726;3.298;2023-09-30T02:51:48;100033.66;;;13.74
61703;BMP280;47622;47.726;3.298;2023-09-30T02:54:16;100040.75;;;13.87
61703;BMP280;47622;47.726;3.298;2023-09-30T02:56:41;100046.19;;;13.91
61703;BMP280;47622;47.726;3.298;2023-09-30T02:59:07;100052.88;;;13.88
61703;BMP280;47622;47.726;3.298;2023-09-30T03:01:34;100050.59;;;13.95
61703;BMP280;47622;47.726;3.298;2023-09-30T03:04:00;100042.31;;;13.88
61703;BMP280;47622;47.726;3.298;2023-09-30T03:06:25;100046.50;;;13.89
61703;BMP280;47622;47.726;3.298;2023-09-30T03:08:51;100046.19;;;13.91
61703;BMP280;47622;47.726;3.298;2023-09-30T03:11:18;100041.28;;;13.98
61703;BMP280;47622;47.726;3.298;2023-09-30T03:13:45;100037.97;;;13.92
61703;BMP280;47622;47.726;3.298;2023-09-30T03:16:11;100032.00;;;14.00
61703;BMP280;47622;47.726;3.298;2023-09-30T03:18:37;100022.53;;;13.99
61703;BMP280;47622;47.726;3.298;2023-09-30T03:21:13;100023.75;;;13.93
61703;BMP280;47622;47.726;3.298;2023-09-30T03:23:39;100015.75;;;13.85
61703;BMP280;47622;47.726;3.298;2023-09-30T03:26:05;100022.59;;;13.86
61703;BMP280;47622;47.726;3.298;2023-09-30T03:28:37;100022.66;;;13.94
61703;BMP280;47622;47.726;3.298;2023-09-30T03:31:04;100015.97;;;13.97
61703;BMP280;47622;47.726;3.298;2023-09-30T03:33:32;100010.34;;;13.90
61703;BMP280;47622;47.726;3.298;2023-09-30T03:35:58;100015.31;;;13.91
61703;BMP280;47622;47.726;3.298;2023-09-30T03:38:26;100012.69;;;13.91
61703;BMP280;47622;47.726;3.298;2023-09-30T03:40:52;100016.81;;;13.84
61703;BMP280;47622;47.726;3.298;2023-09-30T03:43:22;100013.41;;;13.83
61703;BMP280;47622;47.726;3.298;2023-09-30T03:45:48;100011.25;;;13.85
61703;BMP280;47622;47.726;3.298;2023-09-30T03:48:14;100034.50;;;13.83
61703;BMP280;47622;47.726;3.298;2023-09-30T03:50:39;100022.88;;;13.84
61703;BMP280;47622;47.726;3.298;2023-09-30T03:53:05;100026.59;;;13.83
61703;BMP280;47622;47.726;3.298;2023-09-30T03:55:34;100024.31;;;13.90
61703;BMP280;47622;47.726;3.298;2023-09-30T03:58:00;100019.03;;;13.90
61703;BMP280;47622;47.726;3.298;2023-09-30T04:00:26;100022.16;;;13.92
61703;BMP280;47622;47.726;3.298;2023-09-30T04:02:51;100033.91;;;13.86
61703;BMP280;47622;47.726;3.298;2023-09-30T04:05:24;100031.78;;;13.88
61703;BMP280;47622;47.726;3.298;2023-09-30T04:07:59;100026.00;;;13.86
61703;BMP280;47622;47.726;3.298;2023-09-30T04:10:25;100032.59;;;13.75
61703;BMP280;47622;47.726;3.298;2023-09-30T04:12:52;100034.22;;;13.71
61703;BMP280;47622;47.726;3.298;2023-09-30T04:15:18;100035.81;;;13.72
61703;BMP280;47622;47.726;3.298;2023-09-30T04:17:44;100031.59;;;13.71
61703;BMP280;47622;47.726;3.298;2023-09-30T04:20:09;100035.66;;;13.77
61703;BMP280;47622;47.726;3.298;2023-09-30T04:22:41;100040.38;;;13.80
61703;BMP280;47622;47.726;3.298;2023-09-30T04:25:07;100050.50;;;13.87
61703;BMP280;47622;47.726;3.298;2023-09-30T04:27:36;100052.06;;;13.88
61703;BMP280;47622;47.726;3.298;2023-09-30T04:30:03;100061.72;;;13.92
61703;BMP280;47622;47.726;3.298;2023-09-30T04:32:37;100056.38;;;13.84
61703;BMP280;47622;47.726;3.298;2023-09-30T04:35:05;100052.31;;;13.78
61703;BMP280;47622;47.726;3.298;2023-09-30T04:37:31;100060.28;;;13.86
61703;BMP280;47622;47.726;3.298;2023-09-30T04:39:56;100065.53;;;13.86
61703;BMP280;47622;47.726;3.298;2023-09-30T04:42:23;100070.22;;;13.89
61703;BMP280;47622;47.726;3.298;2023-09-30T04:44:52;100067.09;;;13.87
61703;BMP280;47622;47.726;3.298;2023-09-30T04:47:18;100065.41;;;13.83
61703;BMP280;47622;47.726;3.298;2023-09-30T04:49:48;100066.75;;;13.80
61703;BMP280;47622;47.726;3.298;2023-09-30T04:52:13;100066.16;;;13.83
61703;BMP280;47622;47.726;3.298;2023-09-30T04:54:39;100064.47;;;13.87
61703;BMP280;47622;47.726;3.298;2023-09-30T04:57:04;100071.78;;;13.90
61703;BMP280;47622;47.726;3.298;2023-09-30T04:59:30;100071.38;;;13.97
61703;BMP280;47622;47.726;3.298;2023-09-30T05:01:56;100070.78;;;14.00
61703;BMP280;47622;47.726;3.298;2023-09-30T05:04:21;100078.63;;;13.91
61703;BMP280;47622;47.726;3.298;2023-09-30T05:06:49;100082.69;;;13.97
61703;BMP280;47622;47.726;3.298;2023-09-30T05:09:15;100078.41;;;14.01
61703;BMP280;47622;47.726;3.298;2023-09-30T05:11:40;100072.03;;;14.02
61703;BMP280;47622;47.726;3.298;2023-09-30T05:14:06;100073.47;;;14.09
61703;BMP280;47622;47.726;3.298;2023-09-30T05:16:31;100079.91;;;14.16
61703;BMP280;47622;47.726;3.298;2023-09-30T05:18:57;100080.69;;;14.17
61703;BMP280;47622;47.726;3.298;2023-09-30T05:21:24;100074.44;;;14.13
61703;BMP280;47622;47.726;3.298;2023-09-30T05:23:50;100077.31;;;14.25
61703;BMP280;47622;47.726;3.298;2023-09-30T05:26:15;100075.72;;;14.38
61703;BMP280;47622;47.726;3.298;2023-09-30T05:28:42;100055.03;;;14.31
61703;BMP280;47622;47.726;3.298;2023-09-30T05:31:08;100052.13;;;14.19
61703;BMP280;47622;47.726;3.298;2023-09-30T05:33:33;100044.22;;;14.19
61703;BMP280;47622;47.726;3.298;2023-09-30T05:36:01;100040.63;;;14.15
61703;BMP280;47622;47.726;3.298;2023-09-30T05:38:28;100036.38;;;14.05
61703;BMP280;47622;47.726;3.298;2023-09-30T05:40:56;100032.06;;;14.09
61703;BMP280;47622;47.726;3.298;2023-09-30T05:43:24;100036.53;;;14.09
61703;BMP280;47622;47.726;3.298;2023-09-30T05:45:50;100035.44;;;14.01
61703;BMP280;47622;47.726;3.298;2023-09-30T05:48:20;100042.91;;;13.85
61703;BMP280;47622;47.726;3.298;2023-09-30T05:50:46;100042.53;;;13.78
61703;BMP280;47622;47.726;3.298;2023-09-30T05:53:14;100039.34;;;13.67
61703;BMP280;47622;47.726;3.298;2023-09-30T05:55:41;100035.94;;;13.67
61703;BMP280;47622;47.726;3.298;2023-09-30T05:58:13;100030.66;;;13.67
61703;BMP280;47622;47.726;3.298;2023-09-30T06:00:42;100034.06;;;13.67
61703;BMP280;47622;47.726;3.298;2023-09-30T06:03:08;100030.66;;;13.67
61703;BMP280;47622;47.726;3.298;2023-09-30T06:05:34;100033.91;;;13.64
61703;BMP280;47622;47.726;3.298;2023-09-30T06:08:04;100027.84;;;13.63
61703;BMP280;47622;47.726;3.298;2023-09-30T06:10:30;100015.44;;;13.64
61703;BMP280;47622;47.726;3.298;2023-09-30T06:12:56;100014.03;;;13.66
61703;BMP280;47622;47.726;3.298;2023-09-30T06:15:24;100014.44;;;13.73
61703;BMP280;47622;47.726;3.298;2023-09-30T06:17:54;100030.25;;;13.73
61703;BMP280;47622;47.726;3.298;2023-09-30T06:20:20;100032.59;;;13.75
61703;BMP280;47622;47.726;3.298;2023-09-30T06:22:48;100037.25;;;13.78
61703;BMP280;47622;47.726;3.298;2023-09-30T06:25:17;100038.81;;;13.79
61703;BMP280;47622;47.726;3.298;2023-09-30T06:27:44;100050.13;;;13.93
61703;BMP280;47622;47.726;3.298;2023-09-30T06:30:12;100061.19;;;14.04
61703;BMP280;47622;47.726;3.298;2023-09-30T06:32:38;100068.09;;;14.14
61703;BMP280;47622;47.726;3.298;2023-09-30T06:35:05;100061.47;;;14.25
61703;BMP280;47622;47.726;3.298;2023-09-30T06:37:32;100079.00;;;14.43
61703;BMP280;47622;47.726;3.298;2023-09-30T06:39:58;100086.88;;;14.65
61703;BMP280;47622;47.726;3.298;2023-09-30T06:42:24;100083.69;;;14.86
61703;BMP280;47622;47.726;3.298;2023-09-30T06:44:50;100081.59;;;15.05
61703;BMP280;47622;47.726;3.298;2023-09-30T06:47:16;100077.91;;;15.23
61703;BMP280;47622;47.726;3.298;2023-09-30T06:49:41;100084.78;;;15.42
61703;BMP280;47622;47.726;3.298;2023-09-30T06:52:07;100087.91;;;15.61
61703;BMP280;47622;47.726;3.298;2023-09-30T06:54:33;100095.88;;;15.95
61703;BMP280;47622;47.726;3.298;2023-09-30T06:56:58;100099.25;;;16.39
61703;BMP280;47622;47.726;3.298;2023-09-30T06:59:25;100099.75;;;16.71
61703;BMP280;47622;47.726;3.298;2023-09-30T07:01:52;100095.91;;;16.89
61703;BMP280;47622;47.726;3.298;2023-09-30T07:04:17;100101.81;;;17.03
61703;BMP280;47622;47.726;3.298;2023-09-30T07:06:43;100098.59;;;17.18
61703;BMP280;47622;47.726;3.298;2023-09-30T07:09:08;100095.56;;;17.29
61703;BMP280;47622;47.726;3.298;2023-09-30T07:11:35;100092.72;;;17.34
61703;BMP280;47622;47.726;3.298;2023-09-30T07:14:03;100094.22;;;17.22
61703;BMP280;47622;47.726;3.298;2023-09-30T07:16:29;100092.72;;;17.04
61703;BMP280;47622;47.726;3.298;2023-09-30T07:18:55;100105.19;;;17.12
61703;BMP280;47622;47.726;3.298;2023-09-30T07:21:21;100096.06;;;17.22
61703;BMP280;47622;47.726;3.298;2023-09-30T07:23:46;100110.13;;;17.22
61703;BMP280;47622;47.726;3.298;2023-09-30T07:26:13;100112.09;;;17.25
61703;BMP280;47622;47.726;3.298;2023-09-30T07:28:40;100108.16;;;17.32
61703;BMP280;47622;47.726;3.298;2023-09-30T07:31:05;100100.47;;;17.39
61703;BMP280;47622;47.726;3.298;2023-09-30T07:33:32;100099.25;;;17.57
61703;BMP280;47622;47.726;3.298;2023-09-30T07:35:57;100090.34;;;17.74
61703;BMP280;47622;47.726;3.298;2023-09-30T07:38:23;100096.13;;;17.97
61703;BMP280;47622;47.726;3.298;2023-09-30T07:40:49;100103.41;;;18.12
61703;BMP280;47622;47.726;3.298;2023-09-30T07:43:15;100097.97;;;18.29
61703;BMP280;47622;47.726;3.298;2023-09-30T07:45:43;100097.31;;;18.69
61703;BMP280;47622;47.726;3.298;2023-09-30T07:48:09;100110.84;;;18.88
61703;BMP280;47622;47.726;3.298;2023-09-30T07:50:36;100106.25;;;19.13
61703;BMP280;47622;47.726;3.298;2023-09-30T07:53:01;100111.59;;;19.53
61703;BMP280;47622;47.726;3.298;2023-09-30T07:55:28;100118.06;;;19.95
61703;BMP280;47622;47.726;3.298;2023-09-30T07:57:54;100120.34;;;20.25
61703;BMP280;47622;47.726;3.298;2023-09-30T08:00:22;100126.59;;;20.64
61703;BMP280;47622;47.726;3.298;2023-09-30T08:02:48;100129.72;;;21.01
61703;BMP280;47622;47.726;3.298;2023-09-30T08:05:15;100132.69;;;21.73
61703;BMP280;47622;47.726;3.298;2023-09-30T08:07:41;100144.94;;;22.20
61703;BMP280;47622;47.726;3.298;2023-09-30T08:10:07;100134.69;;;22.48
61703;BMP280;47622;47.726;3.298;2023-09-30T08:12:38;100138.97;;;23.09
61703;BMP280;47622;47.726;3.298;2023-09-30T08:15:04;100132.28;;;24.03
61703;BMP280;47622;47.726;3.298;2023-09-30T08:17:31;100146.31;;;25.10
61703;BMP280;47622;47.726;3.298;2023-09-30T08:19:57;100143.34;;;25.50
61703;BMP280;47622;47.726;3.298;2023-09-30T08:22:24;100151.44;;;26.21
61703;BMP280;47622;47.726;3.298;2023-09-30T08:24:56;100152.72;;;27.00
61703;BMP280;47622;47.726;3.298;2023-09-30T08:27:22;100145.09;;;27.98
61703;BMP280;47622;47.726;3.298;2023-09-30T08:29:49;100136.69;;;28.27
61703;BMP280;47622;47.726;3.298;2023-09-30T08:32:15;100141.31;;;28.60
61703;BMP280;47622;47.726;3.298;2023-09-30T08:34:40;100136.63;;;29.22
61703;BMP280;47622;47.726;3.298;2023-09-30T08:37:09;100137.03;;;29.20
61703;BMP280;47622;47.726;3.298;2023-09-30T08:39:38;100141.81;;;29.09
61703;BMP280;47622;47.726;3.298;2023-09-30T08:42:09;100138.31;;;29.35
61703;BMP280;47622;47.726;3.298;2023-09-30T08:44:39;100143.03;;;29.54
61703;BMP280;47622;47.726;3.298;2023-09-30T08:47:08;100143.72;;;29.82
61703;BMP280;47622;47.726;3.298;2023-09-30T08:49:38;100141.75;;;30.45
61703;BMP280;47622;47.726;3.298;2023-09-30T08:52:09;100134.38;;;30.98
61703;BMP280;47622;47.726;3.298;2023-09-30T08:54:35;100126.59;;;30.48
61703;BMP280;47622;47.726;3.298;2023-09-30T08:57:03;100132.63;;;31.07
61703;BMP280;47622;47.726;3.298;2023-09-30T08:59:31;100141.41;;;31.28
61703;BMP280;47622;47.726;3.298;2023-09-30T09:01:57;100133.38;;;31.69
61703;BMP280;47622;47.726;3.298;2023-09-30T09:04:24;100130.13;;;32.03
61703;BMP280;47622;47.726;3.298;2023-09-30T09:06:50;100132.63;;;31.97
61703;BMP280;47622;47.726;3.298;2023-09-30T09:09:17;100132.75;;;31.78
61703;BMP280;47622;47.726;3.298;2023-09-30T09:11:44;100130.28;;;31.83
61703;BMP280;47622;47.726;3.298;2023-09-30T09:14:10;100133.81;;;31.96
61703;BMP280;47622;47.726;3.298;2023-09-30T09:16:36;100137.19;;;31.72
61703;BMP280;47622;47.726;3.298;2023-09-30T09:19:22;100132.19;;;31.70
61703;BMP280;47622;47.726;3.298;2023-09-30T09:21:59;100139.47;;;32.15
61703;BMP280;47622;47.726;3.298;2023-09-30T09:24:32;100132.25;;;32.62
61703;BMP280;47622;47.726;3.298;2023-09-30T09:27:08;100128.03;;;31.94
61703;BMP280;47622;47.726;3.298;2023-09-30T09:29:38;100130.41;;;32.21
61703;BMP280;47622;47.726;3.298;2023-09-30T09:34:34;100125.34;;;32.07
61703;BMP280;47622;47.726;3.298;2023-09-30T09:37:21;100131.56;;;32.08
61703;BMP280;47622;47.726;3.298;2023-09-30T09:39:51;100133.69;;;31.87
61703;BMP280;47622;47.726;3.298;2023-09-30T09:42:28;100134.38;;;31.75
61703;BMP280;47622;47.726;3.298;2023-09-30T09:44:56;100130.09;;;31.90
61703;BMP280;47622;47.726;3.298;2023-09-30T09:47:23;100135.56;;;32.03
61703;BMP280;47622;47.726;3.298;2023-09-30T09:49:50;100128.97;;;32.42
61703;BMP280;47622;47.726;3.298;2023-09-30T09:52:17;100141.38;;;32.94
61703;BMP280;47622;47.726;3.298;2023-09-30T09:54:44;100144.09;;;32.68
61703;BMP280;47622;47.726;3.298;2023-09-30T09:57:11;100136.97;;;32.08
61703;BMP280;47622;47.726;3.298;2023-09-30T09:59:39;100128.78;;;32.62
61703;BMP280;47622;47.726;3.298;2023-09-30T10:02:11;100131.13;;;32.98
61703;BMP280;47622;47.726;3.298;2023-09-30T10:04:46;100125.13;;;33.37
61703;BMP280;47622;47.726;3.298;2023-09-30T10:07:24;100123.63;;;33.36
61703;BMP280;47622;47.726;3.298;2023-09-30T10:09:52;100126.56;;;32.95
61703;BMP280;47622;47.726;3.298;2023-09-30T10:12:19;100128.88;;;32.83
61703;BMP280;47622;47.726;3.298;2023-09-30T10:14:48;100133.78;;;33.23
61703;BMP280;47622;47.726;3.298;2023-09-30T10:17:14;100138.88;;;32.86
61703;BMP280;47622;47.726;3.298;2023-09-30T10:20:05;100132.19;;;33.13
61703;BMP280;47622;47.726;3.298;2023-09-30T10:22:34;100125.28;;;33.21
61703;BMP280;47622;47.726;3.298;2023-09-30T10:25:00;100133.94;;;33.41
61703;BMP280;47622;47.726;3.298;2023-09-30T10:27:29;100132.91;;;33.26
61703;BMP280;47622;47.726;3.298;2023-09-30T10:35:16;100129.84;;;33.58
61703;BMP280;47622;47.726;3.298;2023-09-30T10:37:43;100131.81;;;33.58
61703;BMP280;47622;47.726;3.298;2023-09-30T10:40:10;100132.25;;;32.62
61703;BMP280;47622;47.726;3.298;2023-09-30T10:42:50;100126.19;;;32.33
61703;BMP280;47622;47.726;3.298;2023-09-30T10:45:52;100119.56;;;31.02
61703;BMP280;47622;47.726;3.298;2023-09-30T10:51:15;100116.91;;;31.15
61703;BMP280;47622;47.726;3.298;2023-09-30T10:53:52;100111.97;;;31.58
61703;BMP280;47622;47.726;3.298;2023-09-30T10:56:22;100097.84;;;30.70
61703;BMP280;47622;47.726;3.298;2023-09-30T10:58:51;100088.78;;;29.85
61703;BMP280;47622;47.726;3.298;2023-09-30T11:01:22;100086.56;;;29.37
61703;BMP280;47622;47.726;3.298;2023-09-30T11:03:48;100092.78;;;28.23
61703;BMP280;47622;47.726;3.298;2023-09-30T11:06:20;100092.00;;;27.88
61703;BMP280;47622;47.726;3.298;2023-09-30T11:08:54;100092.44;;;27.83
61703;BMP280;47622;47.726;3.298;2023-09-30T11:11:34;100095.88;;;28.25
61703;BMP280;47622;47.726;3.298;2023-09-30T11:14:00;100107.53;;;28.15
61703;BMP280;47622;47.726;3.298;2023-09-30T11:16:26;100103.75;;;28.09
61703;BMP280;47622;47.726;3.298;2023-09-30T11:18:54;100111.31;;;28.21
61703;BMP280;47622;47.726;3.298;2023-09-30T11:21:22;100116.50;;;28.05
61703;BMP280;47622;47.726;3.298;2023-09-30T11:23:47;100114.94;;;27.66
61703;BMP280;47622;47.726;3.298;2023-09-30T11:26:15;100112.94;;;27.26
61703;BMP280;47622;47.726;3.298;2023-09-30T11:28:44;100105.34;;;27.06
61703;BMP280;47622;47.726;3.298;2023-09-30T11:31:11;100093.16;;;26.88
61703;BMP280;47622;47.726;3.298;2023-09-30T11:33:52;100090.88;;;26.79
61703;BMP280;47622;47.726;3.298;2023-09-30T11:36:21;100087.72;;;27.50
61703;BMP280;47622;47.726;3.298;2023-09-30T11:38:48;100080.03;;;27.89
61703;BMP280;47622;47.726;3.298;2023-09-30T11:41:14;100086.81;;;28.05
61703;BMP280;47622;47.726;3.298;2023-09-30T11:44:02;100076.03;;;28.05
61703;BMP280;47622;47.726;3.298;2023-09-30T11:46:31;100074.06;;;28.09
61703;BMP280;47622;47.726;3.298;2023-09-30T11:49:02;100082.56;;;28.41
61703;BMP280;47622;47.726;3.298;2023-09-30T11:51:28;100079.78;;;28.14
61703;BMP280;47622;47.726;3.298;2023-09-30T11:53:55;100080.47;;;28.22
61703;BMP280;47622;47.726;3.298;2023-09-30T11:56:24;100079.94;;;28.34
61703;BMP280;47622;47.726;3.298;2023-09-30T11:58:56;100083.56;;;28.51
61703;BMP280;47622;47.726;3.298;2023-09-30T12:01:22;100074.91;;;28.36
61703;BMP280;47622;47.726;3.298;2023-09-30T12:03:48;100077.47;;;28.13
61703;BMP280;47622;47.726;3.298;2023-09-30T12:06:14;100070.78;;;27.90
61703;BMP280;47622;47.726;3.298;2023-09-30T12:08:42;100066.09;;;28.32
61703;BMP280;47622;47.726;3.298;2023-09-30T12:11:08;100066.75;;;28.06
61703;BMP280;47622;47.726;3.298;2023-09-30T12:13:33;100066.81;;;27.61
61703;BMP280;47622;47.726;3.298;2023-09-30T12:16:00;100071.75;;;27.73
61703;BMP280;47622;47.726;3.298;2023-09-30T12:18:26;100074.00;;;27.78
61703;BMP280;47622;47.726;3.298;2023-09-30T12:20:52;100060.19;;;27.69
61703;BMP280;47622;47.726;3.298;2023-09-30T12:23:18;100064.44;;;27.26
61703;BMP280;47622;47.726;3.298;2023-09-30T12:25:47;100066.03;;;27.19
61703;BMP280;47622;47.726;3.298;2023-09-30T12:28:13;100059.03;;;27.26
61703;BMP280;47622;47.726;3.298;2023-09-30T12:30:41;100056.97;;;26.92
61703;BMP280;47622;47.726;3.298;2023-09-30T12:33:07;100052.00;;;26.87
61703;BMP280;47622;47.726;3.298;2023-09-30T12:35:33;100045.84;;;26.83
61703;BMP280;47622;47.726;3.298;2023-09-30T12:37:59;100052.47;;;26.68
61703;BMP280;47622;47.726;3.298;2023-09-30T12:40:25;100052.06;;;27.32
61703;BMP280;47622;47.726;3.298;2023-09-30T12:42:51;100048.91;;;26.85
61703;BMP280;47622;47.726;3.298;2023-09-30T12:45:16;100050.31;;;27.07
61703;BMP280;47622;47.726;3.298;2023-09-30T12:47:44;100053.06;;;27.00
61703;BMP280;47622;47.726;3.298;2023-09-30T12:50:09;100054.09;;;26.48
61703;BMP280;47622;47.726;3.298;2023-09-30T12:52:35;100035.41;;;26.05
61703;BMP280;47622;47.726;3.298;2023-09-30T12:55:02;100044.28;;;25.81
61703;BMP280;47622;47.726;3.298;2023-09-30T12:57:30;100038.53;;;25.57
61703;BMP280;47622;47.726;3.298;2023-09-30T12:59:55;100038.19;;;25.52
61703;BMP280;47622;47.726;3.298;2023-09-30T13:02:21;100035.09;;;25.18
61703;BMP280;47622;47.726;3.298;2023-09-30T13:04:46;100032.78;;;25.59
61703;BMP280;47622;47.726;3.298;2023-09-30T13:07:12;100022.06;;;25.77
61703;BMP280;47622;47.726;3.298;2023-09-30T13:09:39;100012.66;;;26.27
61703;BMP280;47622;47.726;3.298;2023-09-30T13:12:05;100021.03;;;26.47
61703;BMP280;47622;47.726;3.298;2023-09-30T13:14:31;100014.03;;;26.64
61703;BMP280;47622;47.726;3.298;2023-09-30T13:16:56;100021.75;;;26.62
61703;BMP280;47622;47.726;3.298;2023-09-30T13:19:22;100017.06;;;26.69
61703;BMP280;47622;47.726;3.298;2023-09-30T13:21:49;100015.19;;;27.21
61703;BMP280;47622;47.726;3.298;2023-09-30T13:24:16;100014.56;;;27.48
61703;BMP280;47622;47.726;3.298;2023-09-30T13:26:41;100014.13;;;27.08
61703;BMP280;47622;47.726;3.298;2023-09-30T13:29:07;100011.75;;;26.62
61703;BMP280;47622;47.726;3.298;2023-09-30T13:31:36;100013.69;;;26.62
61703;BMP280;47622;47.726;3.298;2023-09-30T13:34:05;100003.38;;;27.01
61703;BMP280;47622;47.726;3.298;2023-09-30T13:36:31;99999.22;;;27.41
61703;BMP280;47622;47.726;3.298;2023-09-30T13:38:57;100003.38;;;27.49
61703;BMP280;47622;47.726;3.298;2023-09-30T13:41:22;100002.56;;;27.52
61703;BMP280;47622;47.726;3.298;2023-09-30T13:43:48;100002.69;;;27.42
61703;BMP280;47622;47.726;3.298;2023-09-30T13:46:14;100004.19;;;27.43
61703;BMP280;47622;47.726;3.298;2023-09-30T13:48:40;99985.97;;;27.16
61703;BMP280;47622;47.726;3.298;2023-09-30T13:51:06;99985.81;;;26.86
61703;BMP280;47622;47.726;3.298;2023-09-30T13:53:32;99985.53;;;26.70
61703;BMP280;47622;47.726;3.298;2023-09-30T13:55:58;99984.78;;;26.66
61703;BMP280;47622;47.726;3.298;2023-09-30T13:58:23;99966.38;;;26.57
61703;BMP280;47622;47.726;3.298;2023-09-30T14:00:50;99975.50;;;26.74
61703;BMP280;47622;47.726;3.298;2023-09-30T14:03:19;99980.75;;;26.95
61703;BMP280;47622;47.726;3.298;2023-09-30T14:05:48;99974.59;;;26.95
61703;BMP280;47622;47.726;3.298;2023-09-30T14:08:14;99982.50;;;27.16